Time;durP1;ratioP1;P1;durP2;ratioP2;P2;SDS_P1;SDS_P2;PMS_P1;PMS_P2;Temp;Humidity;BMP_temperature;BMP_pressure;BME280_temperature;BME280_humidity;BME280_pressure;Samples;Min_cycle;Max_cycle;Signal;HPM_P1;HPM_P2
2023/01/23 00:02:08;;;;;;;34.17;16.50;;;-2.60;99.90;;;;;;4971790;28;20788;-62
2023/01/23 00:04:35;;;;;;;27.98;14.60;;;-2.60;99.90;;;;;;4978832;28;20863;-61
2023/01/23 00:07:02;;;;;;;;;;;-2.60;99.90;;;;;;4979002;28;20034;-61
2023/01/23 00:09:29;;;;;;;28.20;16.02;;;-2.60;99.90;;;;;;4992241;28;20019;-62
2023/01/23 00:11:56;;;;;;;30.58;15.63;;;-2.50;99.90;;;;;;4993041;28;20046;-63
2023/01/23 00:14:23;;;;;;;27.00;15.77;;;-2.60;99.90;;;;;;4979476;28;20050;-63
2023/01/23 00:16:49;;;;;;;27.45;15.75;;;-2.60;99.90;;;;;;4977455;28;20069;-62
2023/01/23 00:19:16;;;;;;;31.50;16.02;;;-2.60;99.90;;;;;;4980785;28;20440;-64
2023/01/23 00:21:43;;;;;;;31.58;16.25;;;-2.60;99.90;;;;;;4979978;28;20699;-62
2023/01/23 00:24:11;;;;;;;31.73;17.52;;;-2.60;99.90;;;;;;4980407;28;20045;-62
2023/01/23 00:26:37;;;;;;;32.28;16.13;;;-2.70;99.90;;;;;;4979821;28;20045;-61
2023/01/23 00:29:05;;;;;;;30.00;16.83;;;-2.70;99.90;;;;;;4976212;28;20046;-61
2023/01/23 00:31:35;;;;;;;32.10;17.80;;;-2.60;99.90;;;;;;4978750;28;20038;-62
2023/01/23 00:34:09;;;;;;;32.55;17.13;;;-2.60;99.90;;;;;;4976916;28;20073;-61
2023/01/23 00:36:38;;;;;;;33.65;17.13;;;-2.60;99.90;;;;;;4997537;28;20075;-61
2023/01/23 00:39:08;;;;;;;30.05;16.17;;;-2.60;99.90;;;;;;4977508;28;20039;-62
2023/01/23 00:41:34;;;;;;;32.45;17.95;;;-2.60;99.90;;;;;;4975764;28;20078;-61
2023/01/23 00:44:03;;;;;;;31.77;16.70;;;-2.60;99.90;;;;;;4983656;28;20046;-62
2023/01/23 00:46:29;;;;;;;34.72;17.88;;;-2.60;99.90;;;;;;4984695;28;20038;-62
2023/01/23 00:48:56;;;;;;;34.75;17.60;;;-2.60;99.90;;;;;;4987066;28;20093;-62
2023/01/23 00:51:24;;;;;;;35.05;18.13;;;-2.60;99.90;;;;;;4981536;28;20044;-62
2023/01/23 00:53:51;;;;;;;35.00;17.58;;;-2.60;99.90;;;;;;4984096;28;20487;-62
2023/01/23 00:56:18;;;;;;;35.92;20.55;;;-2.60;99.90;;;;;;4988578;28;20045;-62
2023/01/23 00:58:45;;;;;;;36.10;18.50;;;-2.60;99.90;;;;;;4982184;28;20096;-62
2023/01/23 01:01:14;;;;;;;34.33;17.55;;;-2.60;99.90;;;;;;4979477;28;20066;-64
2023/01/23 01:03:42;;;;;;;29.77;17.65;;;-2.60;99.90;;;;;;4985943;28;20048;-62
2023/01/23 01:06:09;;;;;;;36.53;19.13;;;-2.60;99.90;;;;;;4987566;28;20034;-63
2023/01/23 01:08:36;;;;;;;34.67;18.27;;;-2.60;99.90;;;;;;4980628;28;20057;-62
2023/01/23 01:11:04;;;;;;;35.58;17.77;;;-2.60;99.90;;;;;;4980967;28;20056;-62
2023/01/23 01:13:31;;;;;;;35.80;19.67;;;-2.60;99.90;;;;;;4980223;28;20048;-63
2023/01/23 01:16:00;;;;;;;36.72;19.13;;;-2.60;99.90;;;;;;4982912;28;20111;-62
2023/01/23 01:18:27;;;;;;;36.03;19.67;;;-2.70;99.90;;;;;;4986276;28;20100;-61
2023/01/23 01:20:54;;;;;;;36.05;19.08;;;-2.70;99.90;;;;;;4981389;28;20072;-63
2023/01/23 01:23:21;;;;;;;42.08;21.35;;;-2.70;99.90;;;;;;4982233;28;20034;-61
2023/01/23 01:25:48;;;;;;;42.10;21.67;;;-2.60;99.90;;;;;;4980139;28;20612;-62
2023/01/23 01:28:14;;;;;;;;;;;-2.60;99.90;;;;;;4978212;28;21112;-62
2023/01/23 01:30:41;;;;;;;41.28;20.75;;;-2.60;99.90;;;;;;4981534;28;19925;-63
2023/01/23 01:33:09;;;;;;;46.83;22.88;;;-2.60;99.90;;;;;;4980881;28;20038;-61
2023/01/23 01:35:39;;;;;;;42.88;20.98;;;-2.60;99.90;;;;;;4984153;28;20058;-63
2023/01/23 01:38:07;;;;;;;45.90;23.20;;;-2.60;99.90;;;;;;4980068;28;20046;-61
2023/01/23 01:40:35;;;;;;;38.30;20.70;;;-2.60;99.90;;;;;;4981766;28;20050;-61
2023/01/23 01:43:06;;;;;;;43.20;22.45;;;-2.60;99.90;;;;;;4979846;28;20041;-61
2023/01/23 01:46:07;;;;;;;41.75;21.45;;;-2.60;99.90;;;;;;4982872;28;20041;-62
2023/01/23 01:48:39;;;;;;;37.95;21.15;;;-2.60;99.90;;;;;;4986061;28;20074;-64
2023/01/23 01:51:27;;;;;;;46.58;23.30;;;-2.60;99.90;;;;;;4986581;28;20054;-63
2023/01/23 01:54:19;;;;;;;40.67;21.17;;;-2.60;99.90;;;;;;4978181;28;20049;-61
2023/01/23 01:56:52;;;;;;;43.20;24.45;;;-2.60;99.90;;;;;;4985707;28;20344;-64
2023/01/23 01:59:21;;;;;;;52.70;24.83;;;-2.60;99.90;;;;;;4980266;28;20042;-64
2023/01/23 02:01:54;;;;;;;48.53;24.50;;;-2.60;99.90;;;;;;4987083;28;20046;-61
2023/01/23 02:04:21;;;;;;;49.67;24.88;;;-2.60;99.90;;;;;;4983673;28;20066;-61
2023/01/23 02:06:51;;;;;;;52.08;26.98;;;-2.60;99.90;;;;;;4980781;28;20039;-62
2023/01/23 02:09:23;;;;;;;53.30;25.75;;;-2.60;99.90;;;;;;4980484;28;20138;-62
2023/01/23 02:11:50;;;;;;;51.55;23.88;;;-2.60;99.90;;;;;;4979235;28;20042;-61
2023/01/23 02:14:19;;;;;;;46.25;24.73;;;-2.60;99.90;;;;;;4984992;28;20042;-61
2023/01/23 02:16:50;;;;;;;48.70;23.98;;;-2.60;99.90;;;;;;4978764;28;20046;-62
2023/01/23 02:19:51;;;;;;;51.40;24.92;;;-2.60;99.90;;;;;;4984201;28;20045;-62
2023/01/23 02:23:00;;;;;;;47.05;24.25;;;-2.60;99.90;;;;;;4981469;28;20046;-62
2023/01/23 02:25:44;;;;;;;48.25;26.45;;;-2.60;99.90;;;;;;4980109;28;20038;-62
2023/01/23 02:28:16;;;;;;;55.08;28.00;;;-2.70;99.90;;;;;;4984006;28;20050;-63
2023/01/23 02:30:49;;;;;;;59.15;29.40;;;-2.70;99.90;;;;;;4978506;28;20060;-63
2023/01/23 02:33:19;;;;;;;53.53;26.05;;;-2.70;99.90;;;;;;4984893;28;20120;-62
2023/01/23 02:35:48;;;;;;;55.95;28.95;;;-2.80;99.90;;;;;;4984465;28;20353;-63
2023/01/23 02:38:19;;;;;;;58.15;29.55;;;-2.80;99.90;;;;;;4976876;28;20065;-63
2023/01/23 02:40:46;;;;;;;60.67;31.25;;;-2.80;99.90;;;;;;4983092;28;20117;-62
2023/01/23 02:43:22;;;;;;;59.75;29.08;;;-2.80;99.90;;;;;;4977795;28;20779;-64
2023/01/23 02:45:55;;;;;;;57.38;29.98;;;-2.80;99.90;;;;;;4992187;28;20778;-63
2023/01/23 02:48:23;;;;;;;59.63;30.00;;;-2.80;99.90;;;;;;4976920;28;20220;-64
2023/01/23 02:50:49;;;;;;;;;;;-2.90;99.90;;;;;;4982048;28;20045;-63
2023/01/23 02:53:17;;;;;;;56.63;27.88;;;-2.90;99.90;;;;;;4983564;28;19930;-63
2023/01/23 02:55:43;;;;;;;54.72;29.30;;;-2.90;99.90;;;;;;4974484;28;21165;-62
2023/01/23 03:00:56;;;;;;;60.03;28.73;;;-2.90;99.90;;;;;;4992314;28;20073;-64
2023/01/23 03:03:23;;;;;;;57.45;29.73;;;-3.00;99.90;;;;;;4977716;28;20040;-63
2023/01/23 03:05:50;;;;;;;55.05;27.67;;;-3.00;99.90;;;;;;4984001;28;20057;-61
2023/01/23 03:08:17;;;;;;;61.35;28.23;;;-3.00;99.90;;;;;;4980986;28;20403;-65
2023/01/23 03:10:44;;;;;;;53.95;28.17;;;-3.00;99.90;;;;;;4978981;28;20050;-61
2023/01/23 03:13:11;;;;;;;57.97;28.63;;;-3.00;99.90;;;;;;4978151;28;20115;-64
2023/01/23 03:15:38;;;;;;;54.30;26.95;;;-3.00;99.90;;;;;;4985097;28;20149;-63
2023/01/23 03:18:04;;;;;;;53.55;26.67;;;-3.00;99.90;;;;;;4977620;28;20584;-62
2023/01/23 03:20:39;;;;;;;57.47;29.10;;;-3.00;99.90;;;;;;4978451;28;20050;-62
2023/01/23 03:23:07;;;;;;;56.55;26.33;;;-3.10;99.90;;;;;;4978767;28;20761;-63
2023/01/23 03:25:33;;;;;;;54.67;26.95;;;-3.10;99.90;;;;;;4976341;28;20066;-63
2023/01/23 03:28:02;;;;;;;51.60;27.58;;;-3.10;99.90;;;;;;4975349;28;20046;-62
2023/01/23 03:30:29;;;;;;;55.03;27.27;;;-3.10;99.90;;;;;;4977740;28;20033;-62
2023/01/23 03:32:56;;;;;;;50.63;24.90;;;-3.20;99.90;;;;;;4985196;28;20049;-62
2023/01/23 03:35:22;;;;;;;60.47;27.83;;;-3.20;99.90;;;;;;4984048;28;20074;-62
2023/01/23 03:37:52;;;;;;;50.80;25.45;;;-3.20;99.90;;;;;;4983083;28;20180;-63
2023/01/23 03:43:12;;;;;;;48.50;23.70;;;-3.20;99.90;;;;;;4977613;28;20077;-63
2023/01/23 03:45:44;;;;;;;47.15;23.90;;;-3.20;99.90;;;;;;4980305;28;20042;-63
2023/01/23 03:48:11;;;;;;;44.83;24.92;;;-3.20;99.90;;;;;;4976614;28;20116;-63
2023/01/23 03:50:39;;;;;;;50.25;23.85;;;-3.20;99.90;;;;;;4974755;28;20041;-63
2023/01/23 03:53:05;;;;;;;50.28;24.13;;;-3.20;99.90;;;;;;4997948;28;20754;-62
2023/01/23 03:55:32;;;;;;;42.45;21.63;;;-3.20;99.90;;;;;;4977824;28;20069;-62
2023/01/23 03:57:59;;;;;;;45.13;22.85;;;-3.20;99.90;;;;;;4976322;28;20065;-62
2023/01/23 04:00:29;;;;;;;46.85;23.10;;;-3.20;99.90;;;;;;4985168;28;20037;-62
2023/01/23 04:03:00;;;;;;;42.83;22.45;;;-3.20;99.90;;;;;;4983993;28;20045;-62
2023/01/23 04:05:27;;;;;;;47.05;23.77;;;-3.20;99.90;;;;;;4983614;28;20049;-62
2023/01/23 04:07:54;;;;;;;45.50;23.25;;;-3.20;99.90;;;;;;4975281;28;20042;-61
2023/01/23 04:10:22;;;;;;;44.33;21.85;;;-3.20;99.90;;;;;;4976932;28;20046;-61
2023/01/23 04:12:53;;;;;;;45.05;22.52;;;-3.20;99.90;;;;;;4982836;28;20129;-62
2023/01/23 04:15:19;;;;;;;47.85;24.75;;;-3.20;99.90;;;;;;4978014;28;20034;-63
2023/01/23 04:17:48;;;;;;;47.90;23.40;;;-3.20;99.90;;;;;;4992456;28;20048;-63
2023/01/23 04:20:15;;;;;;;45.58;23.83;;;-3.20;99.90;;;;;;4980596;28;20050;-63
2023/01/23 04:22:42;;;;;;;47.80;23.35;;;-3.20;99.90;;;;;;4988072;28;20046;-63
2023/01/23 04:25:09;;;;;;;;;;;-3.20;99.90;;;;;;4989308;28;20126;-62
2023/01/23 04:27:36;;;;;;;44.47;21.55;;;-3.20;99.90;;;;;;4980340;28;19929;-63
2023/01/23 04:30:03;;;;;;;47.60;23.27;;;-3.20;99.90;;;;;;4987405;28;20046;-62
2023/01/23 04:32:33;;;;;;;45.45;22.95;;;-3.20;99.90;;;;;;4986769;28;20129;-62
2023/01/23 04:35:00;;;;;;;45.47;24.77;;;-3.20;99.90;;;;;;4980942;28;20455;-61
2023/01/23 04:37:28;;;;;;;47.63;22.80;;;-3.20;99.90;;;;;;4997036;28;20050;-61
2023/01/23 04:39:55;;;;;;;45.38;22.83;;;-3.20;99.90;;;;;;4986497;28;20133;-61
2023/01/23 04:42:22;;;;;;;44.15;22.73;;;-3.20;99.90;;;;;;4981130;28;20066;-61
2023/01/23 04:45:02;;;;;;;42.03;22.13;;;-3.30;99.90;;;;;;4979987;28;20050;-62
2023/01/23 04:47:32;;;;;;;43.80;22.55;;;-3.30;99.90;;;;;;4980301;28;20046;-61
2023/01/23 04:50:01;;;;;;;48.40;23.83;;;-3.20;99.90;;;;;;4982966;28;20757;-63
2023/01/23 04:52:31;;;;;;;47.05;22.77;;;-3.30;99.90;;;;;;4980133;28;20085;-63
2023/01/23 04:54:58;;;;;;;44.75;22.70;;;-3.30;99.90;;;;;;4983481;28;20045;-62
2023/01/23 04:57:25;;;;;;;42.67;22.42;;;-3.20;99.90;;;;;;4982574;28;20042;-61
2023/01/23 05:00:03;;;;;;;43.30;21.42;;;-3.20;99.90;;;;;;4980185;28;20053;-62
2023/01/23 05:02:30;;;;;;;48.65;23.95;;;-3.20;99.90;;;;;;4987363;28;20069;-62
2023/01/23 05:04:57;;;;;;;46.53;23.35;;;-3.30;99.90;;;;;;4983254;28;20038;-62
2023/01/23 05:07:25;;;;;;;41.65;21.67;;;-3.20;99.90;;;;;;4995526;28;20691;-61
2023/01/23 05:10:11;;;;;;;44.50;22.70;;;-3.30;99.90;;;;;;4988124;28;20127;-61
2023/01/23 05:12:38;;;;;;;48.97;23.48;;;-3.30;99.90;;;;;;4980386;28;20779;-62
2023/01/23 05:15:06;;;;;;;44.95;22.75;;;-3.30;99.90;;;;;;4981954;28;20042;-61
2023/01/23 05:17:36;;;;;;;47.35;22.13;;;-3.30;99.90;;;;;;4979032;28;20054;-62
2023/01/23 05:20:04;;;;;;;41.13;22.75;;;-3.30;99.90;;;;;;4984044;28;20058;-62
2023/01/23 05:22:31;;;;;;;42.97;22.85;;;-3.30;99.90;;;;;;4988340;28;20038;-60
2023/01/23 05:24:58;;;;;;;43.35;23.38;;;-3.30;99.90;;;;;;5001282;28;20050;-62
2023/01/23 05:27:28;;;;;;;41.30;21.33;;;-3.30;99.90;;;;;;4980450;28;20044;-61
2023/01/23 05:29:54;;;;;;;45.85;23.02;;;-3.20;99.90;;;;;;4987768;28;20046;-61
2023/01/23 05:32:24;;;;;;;44.40;22.35;;;-3.30;99.90;;;;;;4978110;28;20045;-60
2023/01/23 05:35:07;;;;;;;41.30;21.48;;;-3.30;99.90;;;;;;4984870;28;20038;-61
2023/01/23 05:37:36;;;;;;;42.60;21.38;;;-3.30;99.90;;;;;;4996399;28;20043;-62
2023/01/23 05:40:07;;;;;;;40.90;21.15;;;-3.30;99.90;;;;;;4979165;28;20577;-63
2023/01/23 05:42:53;;;;;;;40.90;21.60;;;-3.20;99.90;;;;;;4980427;28;20095;-61
2023/01/23 05:45:38;;;;;;;38.47;20.13;;;-3.20;99.90;;;;;;4981132;28;20131;-62
2023/01/23 05:48:11;;;;;;;40.40;20.23;;;-3.20;99.90;;;;;;4980158;28;20133;-60
2023/01/23 05:50:38;;;;;;;39.83;20.55;;;-3.20;99.90;;;;;;4979939;28;20061;-61
2023/01/23 05:53:05;;;;;;;39.03;20.08;;;-3.20;99.90;;;;;;4979833;28;20121;-62
2023/01/23 05:55:37;;;;;;;42.63;22.00;;;-3.20;99.90;;;;;;4987295;28;20124;-61
2023/01/23 05:58:04;;;;;;;42.30;20.92;;;-3.20;99.90;;;;;;4978248;28;20107;-62
2023/01/23 06:00:54;;;;;;;41.78;21.27;;;-3.30;99.90;;;;;;4979426;28;20113;-62
2023/01/23 06:03:39;;;;;;;39.90;20.73;;;-3.30;99.90;;;;;;4980128;28;20104;-62
2023/01/23 06:06:26;;;;;;;41.35;20.73;;;-3.20;99.90;;;;;;4979308;28;20064;-61
2023/01/23 06:08:53;;;;;;;37.40;18.90;;;-3.20;99.90;;;;;;4979614;28;20030;-61
2023/01/23 06:11:20;;;;;;;40.42;19.95;;;-3.20;99.90;;;;;;4986965;28;20045;-61
2023/01/23 06:13:47;;;;;;;41.42;20.38;;;-3.20;99.90;;;;;;4985208;28;20128;-61
2023/01/23 06:16:13;;;;;;;36.97;19.52;;;-3.20;99.90;;;;;;4986595;28;20038;-61
2023/01/23 06:18:40;;;;;;;39.40;18.73;;;-3.30;99.90;;;;;;4979559;28;20051;-61
2023/01/23 06:21:08;;;;;;;44.45;20.48;;;-3.30;99.90;;;;;;4986776;28;20041;-62
2023/01/23 06:23:36;;;;;;;37.33;19.92;;;-3.30;99.90;;;;;;4979080;28;20042;-60
2023/01/23 06:26:03;;;;;;;40.25;21.13;;;-3.30;99.90;;;;;;4989012;28;20041;-61
2023/01/23 06:28:32;;;;;;;36.28;20.10;;;-3.30;99.90;;;;;;4986591;28;20044;-61
2023/01/23 06:31:01;;;;;;;35.70;20.25;;;-3.30;99.90;;;;;;4977941;28;20038;-60
2023/01/23 06:33:37;;;;;;;34.97;18.90;;;-3.30;99.90;;;;;;4986855;28;20147;-62
2023/01/23 06:36:08;;;;;;;37.53;19.70;;;-3.30;99.90;;;;;;4980082;28;20045;-62
2023/01/23 06:38:36;;;;;;;38.05;19.48;;;-3.30;99.90;;;;;;5001321;28;20096;-62
2023/01/23 06:41:07;;;;;;;35.33;20.27;;;-3.30;99.90;;;;;;4976924;28;20129;-61
2023/01/23 06:43:37;;;;;;;39.55;19.05;;;-3.30;99.90;;;;;;4973268;28;20049;-63
2023/01/23 06:46:09;;;;;;;36.35;18.23;;;-3.30;99.90;;;;;;4970358;28;20038;-61
2023/01/23 06:48:37;;;;;;;38.95;19.85;;;-3.30;99.90;;;;;;4983674;28;20164;-64
2023/01/23 06:51:05;;;;;;;33.42;17.35;;;-3.30;99.90;;;;;;4973183;28;20038;-49
2023/01/23 06:53:32;;;;;;;42.22;20.73;;;-3.30;99.90;;;;;;4965263;28;20038;-59
2023/01/23 06:56:04;;;;;;;33.10;18.17;;;-3.30;99.90;;;;;;4987528;28;20129;-49
2023/01/23 06:58:34;;;;;;;31.85;17.65;;;-3.30;99.90;;;;;;4962416;28;20832;-51
2023/01/23 07:01:14;;;;;;;34.40;18.95;;;-3.30;99.90;;;;;;4972531;28;20077;-50
2023/01/23 07:04:01;;;;;;;30.65;16.50;;;-3.30;99.90;;;;;;4966245;28;20049;-50
2023/01/23 07:06:30;;;;;;;34.45;18.85;;;-3.20;99.90;;;;;;4982632;28;20050;-51
2023/01/23 07:08:56;;;;;;;34.03;18.48;;;-3.20;99.90;;;;;;4968139;28;20663;-50
2023/01/23 07:11:24;;;;;;;33.70;17.77;;;-3.20;99.90;;;;;;4971421;28;20131;-51
2023/01/23 07:13:50;;;;;;;37.15;17.85;;;-3.20;99.90;;;;;;4986030;28;20038;-48
2023/01/23 07:16:18;;;;;;;36.03;19.00;;;-3.20;99.90;;;;;;4964911;28;20049;-50
2023/01/23 07:18:45;;;;;;;36.03;18.52;;;-3.20;99.90;;;;;;4971344;28;20039;-50
2023/01/23 07:21:12;;;;;;;33.03;17.45;;;-3.20;99.90;;;;;;4972390;28;20121;-49
2023/01/23 07:23:38;;;;;;;34.78;17.80;;;-3.20;99.90;;;;;;4967007;28;20073;-51
2023/01/23 07:26:08;;;;;;;33.90;17.65;;;-3.20;99.90;;;;;;4972158;28;20848;-49
2023/01/23 07:28:36;;;;;;;31.02;17.65;;;-3.20;99.90;;;;;;4966724;28;20124;-50
2023/01/23 07:31:04;;;;;;;34.72;17.95;;;-3.20;99.90;;;;;;4964813;28;20045;-49
2023/01/23 07:33:31;;;;;;;31.42;16.70;;;-3.20;99.90;;;;;;4966500;28;20042;-51
2023/01/23 07:35:58;;;;;;;34.90;17.42;;;-3.20;99.90;;;;;;4968095;28;20161;-53
2023/01/23 07:38:24;;;;;;;30.95;16.67;;;-3.20;99.90;;;;;;4965622;28;20050;-50
2023/01/23 07:40:52;;;;;;;33.55;17.17;;;-3.20;99.90;;;;;;4967472;28;20152;-50
2023/01/23 07:43:18;;;;;;;33.20;17.85;;;-3.30;99.90;;;;;;4967760;28;20121;-50
2023/01/23 07:45:45;;;;;;;34.80;17.35;;;-3.30;99.90;;;;;;4966755;28;20050;-49
2023/01/23 07:48:12;;;;;;;31.60;15.68;;;-3.30;99.90;;;;;;4966754;28;20442;-49
2023/01/23 07:50:39;;;;;;;31.73;17.58;;;-3.30;99.90;;;;;;4967552;28;20045;-50
2023/01/23 07:53:06;;;;;;;32.05;16.90;;;-3.30;99.90;;;;;;4963578;28;20041;-50
2023/01/23 07:55:33;;;;;;;32.50;16.25;;;-3.30;99.90;;;;;;4969821;28;20129;-50
2023/01/23 07:58:00;;;;;;;32.83;17.05;;;-3.30;99.90;;;;;;4968913;28;20050;-48
2023/01/23 08:00:26;;;;;;;31.92;16.42;;;-3.30;99.90;;;;;;4968926;28;20042;-50
2023/01/23 08:02:56;;;;;;;33.17;15.77;;;-3.30;99.90;;;;;;4972103;28;20267;-47
2023/01/23 08:05:22;;;;;;;27.73;15.40;;;-3.30;99.90;;;;;;4975704;28;20044;-51
2023/01/23 08:07:49;;;;;;;30.90;16.10;;;-3.30;99.90;;;;;;4969617;28;20030;-50
2023/01/23 08:10:23;;;;;;;29.60;16.27;;;-3.20;99.90;;;;;;4967094;28;20493;-50
2023/01/23 08:12:50;;;;;;;32.92;15.55;;;-3.20;99.90;;;;;;4968767;28;20052;-49
2023/01/23 08:15:17;;;;;;;31.77;16.60;;;-3.20;99.90;;;;;;4970062;28;20128;-50
2023/01/23 08:17:43;;;;;;;29.90;16.65;;;-3.20;99.90;;;;;;4969796;28;20878;-49
2023/01/23 08:20:10;;;;;;;32.50;15.48;;;-3.20;99.90;;;;;;4969232;28;20050;-53
2023/01/23 08:22:39;;;;;;;31.33;16.98;;;-3.10;99.90;;;;;;4968291;28;20137;-51
2023/01/23 08:25:10;;;;;;;33.70;17.52;;;-3.10;99.90;;;;;;4964332;28;20042;-51
2023/01/23 08:27:36;;;;;;;34.42;17.33;;;-3.10;99.90;;;;;;4967366;28;20065;-50
2023/01/23 08:30:05;;;;;;;34.75;17.05;;;-3.00;99.90;;;;;;4969309;28;20056;-50
2023/01/23 08:32:34;;;;;;;28.40;15.80;;;-3.00;99.90;;;;;;4973175;28;20568;-51
2023/01/23 08:35:03;;;;;;;30.80;16.05;;;-3.00;99.90;;;;;;4969946;28;20052;-48
2023/01/23 08:37:32;;;;;;;32.90;17.25;;;-2.90;99.90;;;;;;4966842;28;20063;-49
2023/01/23 08:39:58;;;;;;;30.92;16.63;;;-2.90;99.90;;;;;;4971508;28;20763;-49
2023/01/23 08:42:25;;;;;;;33.47;16.70;;;-2.90;99.90;;;;;;4970129;28;20041;-51
2023/01/23 08:44:52;;;;;;;32.83;16.65;;;-2.90;99.90;;;;;;4969350;28;20177;-50
2023/01/23 08:47:19;;;;;;;;;;;-2.90;99.90;;;;;;4969659;28;20197;-51
2023/01/23 08:49:45;;;;;;;33.35;16.58;;;-2.80;99.90;;;;;;4969586;28;20016;-52
2023/01/23 08:52:12;;;;;;;;;;;-2.80;99.90;;;;;;4969922;28;20600;-51
2023/01/23 08:55:40;;;;;;;30.33;15.20;;;-2.80;99.90;;;;;;4988979;28;21668;-48
2023/01/23 08:58:11;;;;;;;27.17;15.60;;;-2.80;99.90;;;;;;4985701;28;20121;-52
2023/01/23 09:00:39;;;;;;;27.38;15.13;;;-2.80;99.90;;;;;;4983237;28;20046;-51
2023/01/23 09:03:06;;;;;;;32.08;16.10;;;-2.80;99.90;;;;;;4987584;28;20899;-49
2023/01/23 09:05:36;;;;;;;34.42;17.33;;;-2.70;99.90;;;;;;4987779;28;20081;-49
2023/01/23 09:08:03;;;;;;;37.63;16.38;;;-2.70;99.90;;;;;;4989020;28;20282;-49
2023/01/23 09:10:29;;;;;;;29.77;16.27;;;-2.70;99.90;;;;;;4987014;28;20832;-53
2023/01/23 09:12:56;;;;;;;34.20;15.45;;;-2.70;99.90;;;;;;4989382;28;20046;-50
2023/01/23 09:15:23;;;;;;;34.10;16.25;;;-2.70;99.90;;;;;;4988476;28;20506;-51
2023/01/23 09:17:50;;;;;;;;;;;-2.70;99.90;;;;;;4988833;28;20041;-53
2023/01/23 09:20:17;;;;;;;29.70;16.10;;;-2.70;99.90;;;;;;4986165;28;19925;-52
2023/01/23 09:22:44;;;;;;;32.70;15.80;;;-2.70;99.90;;;;;;4989024;28;20131;-51
2023/01/23 09:25:11;;;;;;;32.95;16.15;;;-2.70;99.90;;;;;;4983573;28;20041;-54
2023/01/23 09:27:38;;;;;;;27.50;16.05;;;-2.60;99.90;;;;;;4986761;28;20065;-54
2023/01/23 09:30:05;;;;;;;30.77;16.08;;;-2.60;99.90;;;;;;4987103;28;20048;-54
2023/01/23 09:32:32;;;;;;;31.55;17.02;;;-2.60;99.90;;;;;;4983362;28;20049;-52
2023/01/23 09:34:59;;;;;;;;;;;-2.50;99.90;;;;;;4983904;28;20839;-53
2023/01/23 09:40:18;;;;;;;23.58;13.95;;;-2.10;99.90;;;;;;4989752;28;20033;-53
2023/01/23 09:42:45;;;;;;;28.27;15.05;;;-1.80;99.90;;;;;;4986778;28;20107;-52
2023/01/23 09:45:17;;;;;;;26.20;15.25;;;-1.60;99.90;;;;;;4988504;28;20335;-52
2023/01/23 09:47:55;;;;;;;26.48;14.63;;;-1.40;99.90;;;;;;4984055;28;20049;-52
2023/01/23 09:50:29;;;;;;;25.55;14.00;;;-1.30;99.90;;;;;;4988049;28;20103;-63
2023/01/23 09:53:10;;;;;;;27.30;13.95;;;-1.20;99.90;;;;;;4987018;28;20046;-53
2023/01/23 09:55:47;;;;;;;22.25;13.23;;;-1.10;99.90;;;;;;4984884;28;21037;-50
2023/01/23 09:58:25;;;;;;;27.27;14.57;;;-1.20;99.90;;;;;;4980001;28;20831;-53
2023/01/23 10:00:52;;;;;;;25.95;14.23;;;-1.30;99.90;;;;;;4985604;28;20046;-50
2023/01/23 10:03:20;;;;;;;25.48;14.15;;;-1.40;99.90;;;;;;4971981;28;20033;-51
2023/01/23 10:06:10;;;;;;;30.55;16.00;;;-1.50;99.90;;;;;;4981598;28;20370;-52
2023/01/23 10:08:43;;;;;;;27.48;14.77;;;-1.60;99.90;;;;;;4969432;28;20133;-53
2023/01/23 10:11:36;;;;;;;28.60;14.73;;;-1.70;99.90;;;;;;4971657;28;20854;-55
2023/01/23 10:14:21;;;;;;;26.38;13.93;;;-1.70;99.90;;;;;;4970238;28;20050;-59
2023/01/23 10:16:54;;;;;;;31.70;16.23;;;-1.70;99.90;;;;;;4973093;28;20052;-57
2023/01/23 10:19:44;;;;;;;27.75;15.07;;;-1.70;99.90;;;;;;4973618;28;20046;-58
2023/01/23 10:22:23;;;;;;;29.92;15.77;;;-1.80;99.90;;;;;;4933222;28;20251;-58
2023/01/23 10:24:56;;;;;;;28.20;15.30;;;-1.80;99.90;;;;;;4977464;28;20180;-54
2023/01/23 10:27:47;;;;;;;28.98;15.27;;;-1.90;99.90;;;;;;4969670;28;20050;-50
2023/01/23 10:30:20;;;;;;;25.58;14.48;;;-1.90;99.90;;;;;;4962770;28;20141;-54
2023/01/23 10:33:00;;;;;;;27.92;14.05;;;-1.90;99.90;;;;;;4976280;28;20120;-54
2023/01/23 10:35:42;;;;;;;30.48;16.45;;;-2.00;99.90;;;;;;4970258;28;20044;-57
2023/01/23 10:38:45;;;;;;;29.63;14.85;;;-2.00;99.90;;;;;;4969539;28;20753;-52
2023/01/23 10:41:16;;;;;;;28.15;14.90;;;-2.00;99.90;;;;;;4972289;28;20131;-54
2023/01/23 10:43:46;;;;;;;29.42;15.63;;;-2.00;99.90;;;;;;4972487;28;20127;-53
2023/01/23 10:46:19;;;;;;;24.88;14.68;;;-2.00;99.90;;;;;;4971306;28;20725;-52
2023/01/23 10:48:51;;;;;;;27.30;15.18;;;-2.00;99.90;;;;;;4971173;28;20629;-51
2023/01/23 10:51:36;;;;;;;26.75;15.75;;;-1.90;99.90;;;;;;4949088;28;20034;-53
2023/01/23 10:54:05;;;;;;;30.67;17.75;;;-2.00;99.90;;;;;;4975370;28;20052;-54
2023/01/23 10:56:36;;;;;;;29.05;15.23;;;-2.00;99.90;;;;;;4965992;28;20734;-50
2023/01/23 10:59:04;;;;;;;31.35;16.45;;;-2.00;99.90;;;;;;4972536;28;20034;-51
2023/01/23 11:01:33;;;;;;;29.48;15.15;;;-1.90;99.90;;;;;;4975192;28;20970;-50
2023/01/23 11:04:10;;;;;;;27.60;15.57;;;-1.90;99.90;;;;;;4975580;28;20051;-53
2023/01/23 11:06:37;;;;;;;;;;;-1.90;99.90;;;;;;4975022;28;20041;-52
2023/01/23 11:09:16;;;;;;;29.55;16.25;;;-1.90;99.90;;;;;;4973713;28;20769;-52
2023/01/23 11:11:43;;;;;;;27.17;14.70;;;-1.90;99.90;;;;;;4975242;28;20045;-50
2023/01/23 11:14:21;;;;;;;30.35;16.63;;;-1.90;99.90;;;;;;4972696;28;20064;-52
2023/01/23 11:17:03;;;;;;;31.08;14.98;;;-1.80;99.90;;;;;;4974187;28;20038;-52
2023/01/23 11:19:32;;;;;;;33.38;17.67;;;-1.80;99.90;;;;;;4973882;28;20053;-50
2023/01/23 11:22:01;;;;;;;30.02;16.88;;;-1.80;99.90;;;;;;4964346;28;20048;-50
2023/01/23 11:24:32;;;;;;;25.88;15.05;;;-1.80;99.90;;;;;;4977111;28;20083;-50
2023/01/23 11:27:18;;;;;;;28.48;15.77;;;-1.90;99.90;;;;;;4972812;28;20056;-51
2023/01/23 11:30:07;;;;;;;32.78;16.95;;;-1.90;99.90;;;;;;4972023;28;20041;-51
2023/01/23 11:32:48;;;;;;;26.88;14.70;;;-1.90;99.90;;;;;;4972702;28;20434;-50
2023/01/23 11:35:20;;;;;;;28.23;16.10;;;-1.80;99.90;;;;;;4971431;28;20057;-49
2023/01/23 11:37:48;;;;;;;33.95;18.30;;;-1.90;99.90;;;;;;4975205;28;20052;-50
2023/01/23 11:40:16;;;;;;;;;;;-1.80;99.90;;;;;;4977264;28;20649;-49
2023/01/23 11:42:44;;;;;;;32.15;16.05;;;-1.70;99.90;;;;;;4971749;28;20022;-50
2023/01/23 11:45:39;;;;;;;30.90;16.38;;;-1.70;99.90;;;;;;4970430;28;20038;-52
2023/01/23 11:48:37;;;;;;;30.70;16.33;;;-1.60;99.90;;;;;;4960410;28;20049;-53
2023/01/23 11:51:19;;;;;;;35.10;17.33;;;-1.60;99.90;;;;;;4971718;28;20145;-51
2023/01/23 11:54:34;;;;;;;28.58;16.08;;;-1.50;99.90;;;;;;4968553;28;20069;-53
2023/01/23 11:57:23;;;;;;;29.67;16.52;;;-1.50;99.90;;;;;;4985706;28;20046;-52
2023/01/23 12:00:15;;;;;;;31.02;15.48;;;-1.40;99.90;;;;;;4972637;28;20045;-55
2023/01/23 12:03:06;;;;;;;30.60;16.95;;;-1.40;99.90;;;;;;4970371;28;20503;-52
2023/01/23 12:05:50;;;;;;;32.40;16.52;;;-1.30;99.90;;;;;;4975568;28;20137;-52
2023/01/23 12:08:41;;;;;;;32.53;16.45;;;-1.20;99.90;;;;;;4968885;28;20042;-52
2023/01/23 12:11:23;;;;;;;31.20;15.80;;;-1.20;99.90;;;;;;4971135;28;20068;-50
2023/01/23 12:13:58;;;;;;;25.42;14.50;;;-1.10;99.90;;;;;;4972952;28;20058;-50
2023/01/23 12:16:46;;;;;;;28.60;15.40;;;-1.00;99.90;;;;;;4972177;28;20045;-48
2023/01/23 12:19:35;;;;;;;25.20;14.20;;;-0.90;99.90;;;;;;4972962;28;20125;-49
2023/01/23 12:22:02;;;;;;;26.27;14.02;;;-0.90;99.90;;;;;;4975951;28;20068;-49
2023/01/23 12:24:34;;;;;;;;;;;-0.80;99.90;;;;;;4972483;28;20525;-48
2023/01/23 12:27:35;;;;;;;24.80;13.27;;;-0.70;99.90;;;;;;4972035;28;20014;-49
2023/01/23 12:30:27;;;;;;;26.25;14.38;;;-0.60;99.90;;;;;;4971318;28;20510;-51
2023/01/23 12:33:07;;;;;;;27.40;14.50;;;-0.60;99.90;;;;;;4965355;28;20133;-50
2023/01/23 12:36:18;;;;;;;25.85;12.82;;;-0.60;99.90;;;;;;4973227;28;20044;-50
2023/01/23 12:39:11;;;;;;;26.25;13.98;;;-0.60;99.90;;;;;;4979762;28;21200;-49
2023/01/23 12:41:44;;;;;;;29.20;14.73;;;-0.60;99.90;;;;;;4971404;28;20551;-49
2023/01/23 12:44:22;;;;;;;29.13;14.68;;;-0.70;99.90;;;;;;4970898;28;20046;-50
2023/01/23 12:47:07;;;;;;;27.67;13.38;;;-0.70;99.90;;;;;;4967425;28;20074;-48
2023/01/23 12:50:06;;;;;;;23.85;12.70;;;-0.70;99.90;;;;;;4972827;28;20200;-49
2023/01/23 12:52:46;;;;;;;26.40;13.93;;;-0.70;99.90;;;;;;4972603;28;20045;-55
2023/01/23 12:55:19;;;;;;;30.77;15.35;;;-0.80;99.90;;;;;;4974112;28;20479;-48
2023/01/23 12:57:53;;;;;;;31.13;16.17;;;-0.90;99.90;;;;;;4970589;28;20033;-48
2023/01/23 13:00:53;;;;;;;26.00;13.45;;;-0.90;99.90;;;;;;4972321;28;20050;-47
2023/01/23 13:03:55;;;;;;;26.27;13.88;;;-0.90;99.90;;;;;;4963725;28;20625;-47
2023/01/23 13:06:25;;;;;;;26.80;14.35;;;-0.90;99.90;;;;;;4972351;28;20046;-47